Weather observations for the past three days for
Jerome County Airport
| Date | Time (mdt) | Wind (kph) | Vis. (km) | Weather | Sky Cond. | Temperature (ºC) | Relative Humidity | Wind Chill (°C) | Heat Index (°C) | Pressure | Precipitation (cm) | ||||||
|---|---|---|---|---|---|---|---|---|---|---|---|---|---|---|---|---|---|
| Air | Dwpt | 6 hour | altimeter (cm) | sea level (mb) | 1 hr | 3 hr | 6 hr | ||||||||||
| Max. | Min. | ||||||||||||||||
| 02 | 13:53 | Vrbl 6 G 35 | 16.09 | Fair | CLR | 22.8 | -12.2 | 9% | 76.3 | 1015.2 | |||||||
| 02 | 12:53 | SE 13 | 16.09 | Fair | CLR | 21.7 | -8.9 | 12% | 76.35 | 1015.7 | |||||||
| 02 | 11:53 | Vrbl 9 G 28 | 16.09 | Fair | CLR | 21.1 | -7.2 | 21.1 | 3.3 | 14% | 76.43 | 1016.5 | |||||
| 02 | 10:53 | E 13 | 16.09 | Fair | CLR | 18.9 | -2.8 | 23% | 76.45 | 1016.8 | |||||||
| 02 | 09:53 | E 24 | 16.09 | Fair | CLR | 16.7 | -2.2 | 28% | 76.45 | 1017.4 | |||||||
| 02 | 08:53 | E 24 | 16.09 | Fair | CLR | 11.1 | -3.3 | 37% | 76.45 | 1017.9 | |||||||
| 02 | 07:53 | E 20 | 16.09 | Fair | CLR | 7.2 | -2.8 | 49% | 4 | 76.45 | 1017.5 | ||||||
| 02 | 06:53 | E 22 | 16.09 | Fair | CLR | 3.3 | -4.4 | 57% | -1 | 76.43 | 1017.5 | ||||||
| 02 | 05:53 | NE 28 | 16.09 | Fair | CLR | 5 | -4.4 | 10.6 | 4.4 | 51% | 1 | 76.43 | 1017.3 | ||||
| 02 | 04:53 | NE 26 | 16.09 | Fair | CLR | 4.4 | -3.9 | 55% | 0 | 76.43 | 1017.5 | ||||||
| 02 | 03:53 | NE 24 | 16.09 | Fair | CLR | 5 | -3.9 | 53% | 1 | 76.43 | 1017.6 | ||||||
| 02 | 02:53 | NE 22 | 16.09 | Fair | CLR | 7.2 | -4.4 | 44% | 4 | 76.45 | 1017.4 | ||||||
| 02 | 01:53 | NE 19 | 16.09 | Fair | CLR | 6.1 | -3.9 | 49% | 3 | 76.48 | 1018.1 | ||||||
| 02 | 00:53 | E 19 | 16.09 | Fair | CLR | 10.6 | -5 | 33% | 76.45 | 1017.4 | |||||||
| 01 | 23:53 | SE 13 | 16.09 | Fair | CLR | 9.4 | -4.4 | 20.6 | 8.9 | 38% | 8 | 76.45 | 1017.7 | ||||
| 01 | 22:53 | E 15 | 16.09 | Fair | CLR | 11.7 | -6.7 | 27% | 76.45 | 1017.7 | |||||||
| 01 | 21:53 | E 11 | 16.09 | Fair | CLR | 11.1 | -6.1 | 30% | 76.43 | 1017.8 | |||||||
| 01 | 20:53 | E 11 | 16.09 | Fair | CLR | 12.8 | -5.6 | 28% | 76.38 | 1017.3 | |||||||
| 01 | 19:53 | SE 9 | 16.09 | Fair | CLR | 18.9 | -5.6 | 19% | 76.38 | 1016.7 | |||||||
| 01 | 18:53 | SE 9 | 16.09 | Fair | CLR | 20.6 | -7.8 | 14% | 76.4 | 1017.1 | |||||||
| 01 | 17:53 | NW 6 | 16.09 | Fair | CLR | 20 | -7.2 | 20.6 | 16.7 | 15% | 76.43 | 1017.1 | |||||
| 01 | 16:53 | SW 13 | 16.09 | Fair | CLR | 20 | -6.7 | 16% | 76.45 | 1017.8 | |||||||
| 01 | 15:53 | Calm | 16.09 | Fair | CLR | 20.6 | -7.2 | 15% | 76.53 | 1018.4 | |||||||
| 01 | 14:53 | Vrbl 7 | 16.09 | Fair | CLR | 19.4 | -8.9 | 14% | 76.56 | 1019.3 | |||||||
| 01 | 13:53 | Calm | 16.09 | Fair | CLR | 18.3 | -8.3 | 16% | 76.61 | 1019.9 | |||||||
| 01 | 12:53 | SE 6 | 16.09 | Fair | CLR | 17.8 | -7.2 | 18% | 76.66 | 1020.5 | |||||||
| 01 | 11:53 | E 17 G 28 | 16.09 | Fair | CLR | 16.7 | -5.6 | 17.2 | 3.9 | 21% | 76.68 | 1021.0 | |||||
| 01 | 10:53 | SE 9 | 16.09 | Fair | CLR | 13.3 | -3.9 | 30% | 76.71 | 1021.7 | |||||||
| 01 | 09:53 | SE 15 | 16.09 | Fair | CLR | 11.7 | -3.9 | 34% | 76.71 | 1021.8 | |||||||
| 01 | 08:53 | E 15 | 16.09 | Fair | CLR | 9.4 | -3.9 | 39% | 7 | 76.68 | 1021.5 | ||||||
| 01 | 07:53 | E 13 | 16.09 | Fair | CLR | 6.7 | -5.6 | 41% | 4 | 76.66 | 1020.9 | ||||||
| 01 | 06:53 | E 19 | 16.09 | Fair | CLR | 3.9 | -4.4 | 55% | 0 | 76.58 | 1020.0 | ||||||
| 01 | 05:53 | E 20 | 16.09 | Fair | CLR | 6.1 | -5 | 7.8 | 3.9 | 45% | 3 | 76.58 | 1019.4 | ||||
| 01 | 04:53 | E 20 | 16.09 | Fair | CLR | 6.7 | -5 | 43% | 3 | 76.56 | 1019.2 | ||||||
| 01 | 03:53 | E 22 | 16.09 | Fair | CLR | 6.7 | -4.4 | 45% | 3 | 76.56 | 1019.1 | ||||||
| 01 | 02:53 | E 22 | 16.09 | Fair | CLR | 6.1 | -1.7 | 58% | 3 | 76.53 | 1019.0 | ||||||
| 01 | 01:53 | NE 24 | 16.09 | Fair | CLR | 6.7 | -1.7 | 55% | 3 | 76.53 | 1019.1 | ||||||
| 01 | 00:53 | NE 15 | 16.09 | Fair | CLR | 6.1 | -0.6 | 63% | 3 | 76.53 | 1019.2 | ||||||
| 30 | 23:53 | N 19 | 16.09 | Mostly Cloudy | BKN100 BKN120 | 7.8 | 0 | 18.9 | 7.8 | 58% | 5 | 76.5 | 1018.8 | ||||
| 30 | 22:53 | NE 17 | 16.09 | Fair | CLR | 8.9 | -1.1 | 50% | 7 | 76.5 | 1018.6 | ||||||
| 30 | 21:53 | NE 19 | 16.09 | Mostly Cloudy | BKN110 | 10 | 0 | 50% | 8 | 76.45 | 1018.3 | ||||||
| 30 | 20:53 | N 15 | 16.09 | Overcast | OVC110 | 12.8 | -1.1 | 38% | 76.4 | 1017.5 | |||||||
| 30 | 19:53 | N 7 | 16.09 | Overcast | OVC110 | 16.7 | -7.2 | 19% | 76.38 | 1016.9 | |||||||
| 30 | 18:53 | SE 7 | 16.09 | Mostly Cloudy | BKN100 | 17.8 | -7.8 | 17% | 76.35 | 1016.7 | |||||||
| 30 | 17:53 | Calm | 16.09 | Fair | CLR | 18.3 | -8.3 | 18.9 | 15 | 16% | 76.35 | 1016.5 | |||||
| 30 | 16:53 | NE 9 | 16.09 | Fair | CLR | 18.3 | -7.8 | 16% | 76.38 | 1016.5 | |||||||
| 30 | 15:53 | Vrbl 7 | 16.09 | Fair | CLR | 18.3 | -7.8 | 16% | 76.45 | 1017.5 | |||||||
| 30 | 14:53 | E 17 G 28 | 16.09 | Fair | CLR | 18.3 | -6.7 | 18% | 76.5 | 1018.1 | |||||||
| 30 | 13:53 | Vrbl 9 G 26 | 14.48 | Fair | CLR | 17.2 | -5.6 | 21% | 76.53 | 1018.6 | |||||||
| 30 | 12:53 | E 24 G 39 | 16.09 | Fair | CLR | 16.7 | -4.4 | 23% | 76.58 | 1019.2 | |||||||
| 30 | 11:53 | E 22 G 39 | 16.09 | Fair | CLR | 15 | -3.3 | 15.6 | 5.6 | 28% | 76.61 | 1020.2 | |||||
| 30 | 10:53 | E 28 G 43 | 16.09 | Fair | CLR | 13.9 | -2.8 | 32% | 76.66 | 1020.5 | |||||||
| 30 | 09:53 | E 28 | 16.09 | Mostly Cloudy | BKN100 | 11.1 | 0 | 47% | 76.66 | 1020.9 | |||||||
| 30 | 08:53 | E 26 | 16.09 | A Few Clouds | FEW090 | 8.9 | 0.6 | 56% | 6 | 76.66 | 1021.3 | ||||||
| 30 | 07:53 | E 22 | 16.09 | Partly Cloudy | SCT095 | 6.1 | 1.1 | 71% | 3 | 76.66 | 1020.9 | ||||||
| 30 | 06:53 | E 24 | 16.09 | Overcast | BKN085 OVC110 | 5.6 | 0.6 | 71% | 2 | 76.61 | 1020.3 | ||||||
| 30 | 05:53 | E 20 | 16.09 | Overcast | BKN075 BKN090 OVC110 | 7.2 | 0.6 | 11.1 | 7.2 | 63% | 4 | 76.61 | 1020.1 | ||||
| 30 | 04:53 | E 22 | 16.09 | Overcast | OVC100 | 7.8 | -0.6 | 56% | 5 | 76.61 | 1019.8 | ||||||
| 30 | 03:53 | E 22 | 16.09 | A Few Clouds | FEW080 | 7.8 | 0 | 58% | 5 | 76.61 | 1019.7 | ||||||
| 30 | 02:53 | E 28 | 16.09 | Partly Cloudy | SCT120 | 8.3 | 0.6 | 59% | 5 | 76.58 | 1019.5 | ||||||
| 30 | 01:53 | E 17 | 16.09 | Overcast | FEW050 BKN085 OVC110 | 8.9 | 2.8 | 66% | 7 | 76.61 | 1019.7 | ||||||
| 30 | 00:53 | SE 15 | 16.09 | Overcast | BKN100 OVC110 | 10 | 0 | 50% | 8 | 76.56 | 1019.0 | ||||||
| 29 | 23:53 | SE 19 | 16.09 | Fair | CLR | 8.3 | 0.6 | 17.8 | 7.8 | 59% | 6 | 76.5 | 1019.2 | ||||
| 29 | 22:53 | E 19 | 16.09 | Fair | CLR | 10 | -0.6 | 48% | 8 | 76.5 | 1019.2 | ||||||
| 29 | 21:53 | W 11 | 16.09 | Fair | CLR | 11.7 | -1.1 | 41% | 76.45 | 1018.5 | |||||||
| 29 | 20:53 | W 13 | 16.09 | Fair | CLR | 12.2 | -1.7 | 38% | 76.43 | 1017.9 | |||||||
| 29 | 19:53 | N 13 | 16.09 | Overcast | BKN080 OVC100 | 16.1 | -1.7 | 30% | 76.38 | 1017.5 | |||||||
| 29 | 18:53 | W 19 | 16.09 | Partly Cloudy | SCT100 | 17.2 | -3.3 | 25% | 76.38 | 1017.4 | |||||||
| 29 | 17:53 | W 13 | 16.09 | Fair | CLR | 16.1 | -3.9 | 18.9 | 12.8 | 25% | 76.38 | 1017.2 | |||||
| 29 | 16:53 | NW 13 | 16.09 | Fair | CLR | 17.2 | -4.4 | 23% | 76.4 | 1017.5 | |||||||
| 29 | 15:53 | NW 19 G 35 | 16.09 | Fair | CLR | 17.8 | -3.9 | 23% | 76.45 | 1017.9 | |||||||
| 29 | 14:53 | NW 24 G 35 | 16.09 | Fair | CLR | 16.7 | -4.4 | 23% | 76.48 | 1018.6 | |||||||
| Date | Time (mdt) | Wind (kph) | Vis. (km) | Weather | Sky Cond. | Air | Dwpt | Max. | Min. | Relative Humidity | Wind Chill (°C) | Heat Index (°C) | altimeter (cm) | sea level (mb) | 1 hr | 3 hr | 6 hr |
| 6 hour | |||||||||||||||||
| Temperature (ºC) | Pressure | Precipitation (cm) | |||||||||||||||